Terminal Aerodrome Forecast
Issued by NWS

Home | Current Version | Previous Version | Text Only | Print | Product List | Glossary On
Versions: 1 2 3 4 5 6 7 8 9 10 11 12 13 14 15 16 17 18
950
FTUS41 KPBZ 081559 AAC
TAFZZV
TAF AMD
KZZV 081559Z 0816/0912 26005KT 2SM -SN SCT005 OVC015
      TEMPO 0816/0818 BKN005
     FM081800 27005KT 5SM -SHSN OVC015
     FM090300 31005KT 2SM -SHSN OVC010=

USA.gov is the U.S. government's official web portal to all federal, state and local government web resources and services.